sensor_id;sensor_type;location;lat;lon;timestamp;P1;durP1;ratioP1;P2;durP2;ratioP2
52320;SDS011;38261;54.090;13.382;2023-03-20T00:00:31;20.03;;;11.93;;
52320;SDS011;38261;54.090;13.382;2023-03-20T00:01:58;23.37;;;13.07;;
52320;SDS011;38261;54.090;13.382;2023-03-20T00:03:21;20.43;;;11.90;;
52320;SDS011;38261;54.090;13.382;2023-03-20T00:04:43;18.60;;;12.60;;
52320;SDS011;38261;54.090;13.382;2023-03-20T00:06:13;17.90;;;12.00;;
52320;SDS011;38261;54.090;13.382;2023-03-20T00:07:37;19.23;;;12.60;;
52320;SDS011;38261;54.090;13.382;2023-03-20T00:08:59;17.63;;;12.63;;
52320;SDS011;38261;54.090;13.382;2023-03-20T00:10:33;20.57;;;12.97;;
52320;SDS011;38261;54.090;13.382;2023-03-20T00:11:57;25.00;;;14.00;;
52320;SDS011;38261;54.090;13.382;2023-03-20T00:13:21;20.60;;;13.83;;
52320;SDS011;38261;54.090;13.382;2023-03-20T00:14:48;18.53;;;13.40;;
52320;SDS011;38261;54.090;13.382;2023-03-20T00:16:10;19.23;;;13.00;;
52320;SDS011;38261;54.090;13.382;2023-03-20T00:17:32;20.80;;;13.30;;
52320;SDS011;38261;54.090;13.382;2023-03-20T00:18:55;18.37;;;12.70;;
52320;SDS011;38261;54.090;13.382;2023-03-20T00:20:17;17.53;;;12.50;;
52320;SDS011;38261;54.090;13.382;2023-03-20T00:21:39;18.07;;;12.93;;
52320;SDS011;38261;54.090;13.382;2023-03-20T00:23:01;18.37;;;13.57;;
52320;SDS011;38261;54.090;13.382;2023-03-20T00:24:24;21.50;;;13.47;;
52320;SDS011;38261;54.090;13.382;2023-03-20T00:25:46;22.37;;;14.03;;
52320;SDS011;38261;54.090;13.382;2023-03-20T00:27:12;22.10;;;13.53;;
52320;SDS011;38261;54.090;13.382;2023-03-20T00:28:42;23.87;;;15.70;;
52320;SDS011;38261;54.090;13.382;2023-03-20T00:30:20;21.53;;;14.43;;
52320;SDS011;38261;54.090;13.382;2023-03-20T00:31:52;21.40;;;14.87;;
52320;SDS011;38261;54.090;13.382;2023-03-20T00:33:15;26.00;;;15.13;;
52320;SDS011;38261;54.090;13.382;2023-03-20T00:34:37;23.20;;;14.20;;
52320;SDS011;38261;54.090;13.382;2023-03-20T00:35:59;24.83;;;14.27;;
52320;SDS011;38261;54.090;13.382;2023-03-20T00:37:21;19.70;;;13.30;;
52320;SDS011;38261;54.090;13.382;2023-03-20T00:38:44;18.93;;;13.57;;
52320;SDS011;38261;54.090;13.382;2023-03-20T00:40:06;19.37;;;13.60;;
52320;SDS011;38261;54.090;13.382;2023-03-20T00:43:01;16.37;;;12.03;;
52320;SDS011;38261;54.090;13.382;2023-03-20T00:45:50;15.87;;;12.07;;
52320;SDS011;38261;54.090;13.382;2023-03-20T00:47:16;17.60;;;12.27;;
52320;SDS011;38261;54.090;13.382;2023-03-20T00:48:41;17.73;;;13.23;;
52320;SDS011;38261;54.090;13.382;2023-03-20T00:50:06;17.43;;;13.37;;
52320;SDS011;38261;54.090;13.382;2023-03-20T00:51:35;18.10;;;12.27;;
52320;SDS011;38261;54.090;13.382;2023-03-20T00:52:58;18.23;;;12.40;;
52320;SDS011;38261;54.090;13.382;2023-03-20T00:54:20;18.97;;;13.50;;
52320;SDS011;38261;54.090;13.382;2023-03-20T00:55:42;16.43;;;11.87;;
52320;SDS011;38261;54.090;13.382;2023-03-20T00:57:08;22.53;;;13.20;;
52320;SDS011;38261;54.090;13.382;2023-03-20T00:58:34;18.00;;;12.97;;
52320;SDS011;38261;54.090;13.382;2023-03-20T01:00:03;19.80;;;13.17;;
52320;SDS011;38261;54.090;13.382;2023-03-20T01:01:33;15.40;;;11.90;;
52320;SDS011;38261;54.090;13.382;2023-03-20T01:02:56;17.40;;;12.10;;
52320;SDS011;38261;54.090;13.382;2023-03-20T01:04:19;17.07;;;12.50;;
52320;SDS011;38261;54.090;13.382;2023-03-20T01:05:42;16.80;;;11.73;;
52320;SDS011;38261;54.090;13.382;2023-03-20T01:07:05;18.73;;;13.37;;
52320;SDS011;38261;54.090;13.382;2023-03-20T01:08:28;18.63;;;13.30;;
52320;SDS011;38261;54.090;13.382;2023-03-20T01:09:50;18.10;;;12.67;;
52320;SDS011;38261;54.090;13.382;2023-03-20T01:11:13;17.40;;;12.03;;
52320;SDS011;38261;54.090;13.382;2023-03-20T01:12:39;14.93;;;11.67;;
52320;SDS011;38261;54.090;13.382;2023-03-20T01:14:02;16.70;;;12.00;;
52320;SDS011;38261;54.090;13.382;2023-03-20T01:15:26;17.07;;;12.80;;
52320;SDS011;38261;54.090;13.382;2023-03-20T01:16:52;15.93;;;11.13;;
52320;SDS011;38261;54.090;13.382;2023-03-20T01:18:15;16.03;;;11.53;;
52320;SDS011;38261;54.090;13.382;2023-03-20T01:19:38;15.87;;;11.47;;
52320;SDS011;38261;54.090;13.382;2023-03-20T01:21:01;17.50;;;12.00;;
52320;SDS011;38261;54.090;13.382;2023-03-20T01:22:23;15.50;;;11.10;;
52320;SDS011;38261;54.090;13.382;2023-03-20T01:23:45;16.87;;;12.00;;
52320;SDS011;38261;54.090;13.382;2023-03-20T01:25:09;16.87;;;12.30;;
52320;SDS011;38261;54.090;13.382;2023-03-20T01:26:35;16.53;;;11.37;;
52320;SDS011;38261;54.090;13.382;2023-03-20T01:28:06;16.97;;;11.60;;
52320;SDS011;38261;54.090;13.382;2023-03-20T01:29:37;17.63;;;11.90;;
52320;SDS011;38261;54.090;13.382;2023-03-20T01:30:59;14.50;;;11.20;;
52320;SDS011;38261;54.090;13.382;2023-03-20T01:32:21;16.43;;;10.80;;
52320;SDS011;38261;54.090;13.382;2023-03-20T01:33:43;15.47;;;11.23;;
52320;SDS011;38261;54.090;13.382;2023-03-20T01:35:07;17.80;;;12.63;;
52320;SDS011;38261;54.090;13.382;2023-03-20T01:36:32;15.07;;;11.33;;
52320;SDS011;38261;54.090;13.382;2023-03-20T01:37:54;20.40;;;12.80;;
52320;SDS011;38261;54.090;13.382;2023-03-20T01:39:16;21.13;;;12.00;;
52320;SDS011;38261;54.090;13.382;2023-03-20T01:40:43;19.40;;;12.63;;
52320;SDS011;38261;54.090;13.382;2023-03-20T01:42:17;16.73;;;11.80;;
52320;SDS011;38261;54.090;13.382;2023-03-20T01:43:39;18.80;;;13.93;;
52320;SDS011;38261;54.090;13.382;2023-03-20T01:45:07;17.93;;;12.50;;
52320;SDS011;38261;54.090;13.382;2023-03-20T01:46:36;18.27;;;13.10;;
52320;SDS011;38261;54.090;13.382;2023-03-20T01:48:01;19.30;;;12.33;;
52320;SDS011;38261;54.090;13.382;2023-03-20T01:51:21;18.10;;;12.07;;
52320;SDS011;38261;54.090;13.382;2023-03-20T01:52:49;16.47;;;11.83;;
52320;SDS011;38261;54.090;13.382;2023-03-20T01:54:35;19.40;;;12.53;;
52320;SDS011;38261;54.090;13.382;2023-03-20T01:55:59;19.83;;;12.93;;
52320;SDS011;38261;54.090;13.382;2023-03-20T01:57:22;19.60;;;13.23;;
52320;SDS011;38261;54.090;13.382;2023-03-20T01:58:50;18.37;;;13.40;;
52320;SDS011;38261;54.090;13.382;2023-03-20T02:00:29;17.13;;;11.67;;
52320;SDS011;38261;54.090;13.382;2023-03-20T02:01:52;18.93;;;12.67;;
52320;SDS011;38261;54.090;13.382;2023-03-20T02:03:15;19.13;;;13.20;;
52320;SDS011;38261;54.090;13.382;2023-03-20T02:04:40;18.87;;;13.30;;
52320;SDS011;38261;54.090;13.382;2023-03-20T02:06:04;21.47;;;13.03;;
52320;SDS011;38261;54.090;13.382;2023-03-20T02:07:27;20.93;;;13.20;;
52320;SDS011;38261;54.090;13.382;2023-03-20T02:08:52;17.73;;;13.10;;
52320;SDS011;38261;54.090;13.382;2023-03-20T02:10:15;20.77;;;13.30;;
52320;SDS011;38261;54.090;13.382;2023-03-20T02:11:39;25.43;;;14.80;;
52320;SDS011;38261;54.090;13.382;2023-03-20T02:13:03;16.37;;;11.97;;
52320;SDS011;38261;54.090;13.382;2023-03-20T02:14:26;19.87;;;13.40;;
52320;SDS011;38261;54.090;13.382;2023-03-20T02:17:37;20.77;;;14.20;;
52320;SDS011;38261;54.090;13.382;2023-03-20T02:19:00;19.70;;;13.67;;
52320;SDS011;38261;54.090;13.382;2023-03-20T02:24:30;19.40;;;13.13;;
52320;SDS011;38261;54.090;13.382;2023-03-20T02:42:05;39.93;;;21.37;;
52320;SDS011;38261;54.090;13.382;2023-03-20T02:44:12;48.77;;;24.60;;
52320;SDS011;38261;54.090;13.382;2023-03-20T02:47:27;55.43;;;26.80;;
52320;SDS011;38261;54.090;13.382;2023-03-20T02:51:20;58.33;;;28.47;;
52320;SDS011;38261;54.090;13.382;2023-03-20T02:55:39;69.50;;;31.97;;
52320;SDS011;38261;54.090;13.382;2023-03-20T02:57:05;74.07;;;32.43;;
52320;SDS011;38261;54.090;13.382;2023-03-20T02:58:37;71.53;;;31.87;;
52320;SDS011;38261;54.090;13.382;2023-03-20T03:00:08;68.30;;;32.53;;
52320;SDS011;38261;54.090;13.382;2023-03-20T03:01:41;68.50;;;32.87;;
52320;SDS011;38261;54.090;13.382;2023-03-20T03:03:16;74.07;;;33.37;;
52320;SDS011;38261;54.090;13.382;2023-03-20T03:04:53;69.50;;;32.70;;
52320;SDS011;38261;54.090;13.382;2023-03-20T03:07:52;71.57;;;32.43;;
52320;SDS011;38261;54.090;13.382;2023-03-20T03:09:37;71.33;;;33.40;;
52320;SDS011;38261;54.090;13.382;2023-03-20T03:11:07;67.43;;;33.03;;
52320;SDS011;38261;54.090;13.382;2023-03-20T03:12:39;66.17;;;32.57;;
52320;SDS011;38261;54.090;13.382;2023-03-20T03:14:04;68.80;;;32.20;;
52320;SDS011;38261;54.090;13.382;2023-03-20T03:15:29;70.67;;;31.80;;
52320;SDS011;38261;54.090;13.382;2023-03-20T03:16:58;64.03;;;32.00;;
52320;SDS011;38261;54.090;13.382;2023-03-20T03:18:24;58.23;;;29.03;;
52320;SDS011;38261;54.090;13.382;2023-03-20T03:19:52;66.37;;;31.40;;
52320;SDS011;38261;54.090;13.382;2023-03-20T03:21:18;57.63;;;29.20;;
52320;SDS011;38261;54.090;13.382;2023-03-20T03:22:43;62.37;;;29.37;;
52320;SDS011;38261;54.090;13.382;2023-03-20T03:24:13;60.10;;;28.77;;
52320;SDS011;38261;54.090;13.382;2023-03-20T03:26:01;65.13;;;29.87;;
52320;SDS011;38261;54.090;13.382;2023-03-20T03:28:01;74.13;;;29.23;;
52320;SDS011;38261;54.090;13.382;2023-03-20T03:29:51;67.90;;;27.50;;
52320;SDS011;38261;54.090;13.382;2023-03-20T03:31:18;62.23;;;28.70;;
52320;SDS011;38261;54.090;13.382;2023-03-20T03:32:46;72.93;;;31.17;;
52320;SDS011;38261;54.090;13.382;2023-03-20T03:34:22;66.43;;;29.63;;
52320;SDS011;38261;54.090;13.382;2023-03-20T03:35:45;56.37;;;26.37;;
52320;SDS011;38261;54.090;13.382;2023-03-20T03:37:10;65.50;;;29.57;;
52320;SDS011;38261;54.090;13.382;2023-03-20T03:44:32;59.13;;;28.00;;
52320;SDS011;38261;54.090;13.382;2023-03-20T03:46:01;64.20;;;26.00;;
52320;SDS011;38261;54.090;13.382;2023-03-20T03:47:31;48.90;;;24.20;;
52320;SDS011;38261;54.090;13.382;2023-03-20T03:48:58;57.03;;;25.40;;
52320;SDS011;38261;54.090;13.382;2023-03-20T03:50:56;56.93;;;26.10;;
52320;SDS011;38261;54.090;13.382;2023-03-20T03:52:22;54.50;;;23.90;;
52320;SDS011;38261;54.090;13.382;2023-03-20T03:53:47;55.87;;;26.60;;
52320;SDS011;38261;54.090;13.382;2023-03-20T03:55:16;61.07;;;25.60;;
52320;SDS011;38261;54.090;13.382;2023-03-20T03:56:46;54.90;;;25.83;;
52320;SDS011;38261;54.090;13.382;2023-03-20T03:58:12;58.47;;;25.93;;
52320;SDS011;38261;54.090;13.382;2023-03-20T03:59:56;53.53;;;23.57;;
52320;SDS011;38261;54.090;13.382;2023-03-20T04:01:20;63.37;;;27.17;;
52320;SDS011;38261;54.090;13.382;2023-03-20T04:02:44;53.13;;;25.27;;
52320;SDS011;38261;54.090;13.382;2023-03-20T04:04:11;60.57;;;25.63;;
52320;SDS011;38261;54.090;13.382;2023-03-20T04:05:36;58.03;;;25.80;;
52320;SDS011;38261;54.090;13.382;2023-03-20T04:07:03;66.97;;;28.33;;
52320;SDS011;38261;54.090;13.382;2023-03-20T04:08:26;63.97;;;26.40;;
52320;SDS011;38261;54.090;13.382;2023-03-20T04:09:48;56.73;;;25.17;;
52320;SDS011;38261;54.090;13.382;2023-03-20T04:11:13;66.27;;;29.00;;
52320;SDS011;38261;54.090;13.382;2023-03-20T04:12:38;59.53;;;25.70;;
52320;SDS011;38261;54.090;13.382;2023-03-20T04:14:03;64.50;;;26.07;;
52320;SDS011;38261;54.090;13.382;2023-03-20T04:15:25;59.93;;;25.47;;
52320;SDS011;38261;54.090;13.382;2023-03-20T04:16:48;62.77;;;26.77;;
52320;SDS011;38261;54.090;13.382;2023-03-20T04:18:13;63.47;;;25.53;;
52320;SDS011;38261;54.090;13.382;2023-03-20T04:19:37;62.70;;;27.53;;
52320;SDS011;38261;54.090;13.382;2023-03-20T04:21:00;67.83;;;27.37;;
52320;SDS011;38261;54.090;13.382;2023-03-20T04:22:22;64.17;;;26.20;;
52320;SDS011;38261;54.090;13.382;2023-03-20T04:23:44;64.57;;;26.97;;
52320;SDS011;38261;54.090;13.382;2023-03-20T04:25:08;52.10;;;25.30;;
52320;SDS011;38261;54.090;13.382;2023-03-20T04:26:35;54.80;;;24.47;;
52320;SDS011;38261;54.090;13.382;2023-03-20T04:27:58;55.80;;;24.23;;
52320;SDS011;38261;54.090;13.382;2023-03-20T04:29:20;53.40;;;23.57;;
52320;SDS011;38261;54.090;13.382;2023-03-20T04:30:43;54.70;;;23.87;;
52320;SDS011;38261;54.090;13.382;2023-03-20T04:32:08;51.80;;;23.67;;
52320;SDS011;38261;54.090;13.382;2023-03-20T04:33:31;43.40;;;21.40;;
52320;SDS011;38261;54.090;13.382;2023-03-20T04:34:53;45.43;;;20.90;;
52320;SDS011;38261;54.090;13.382;2023-03-20T04:36:15;52.90;;;23.13;;
52320;SDS011;38261;54.090;13.382;2023-03-20T04:37:37;51.30;;;23.50;;
52320;SDS011;38261;54.090;13.382;2023-03-20T04:38:59;48.80;;;23.33;;
52320;SDS011;38261;54.090;13.382;2023-03-20T04:40:21;45.03;;;21.23;;
52320;SDS011;38261;54.090;13.382;2023-03-20T04:41:43;47.97;;;21.73;;
52320;SDS011;38261;54.090;13.382;2023-03-20T04:43:05;49.87;;;21.73;;
52320;SDS011;38261;54.090;13.382;2023-03-20T04:44:27;40.87;;;20.07;;
52320;SDS011;38261;54.090;13.382;2023-03-20T04:45:49;43.47;;;19.83;;
52320;SDS011;38261;54.090;13.382;2023-03-20T04:47:11;44.50;;;20.17;;
52320;SDS011;38261;54.090;13.382;2023-03-20T04:48:34;40.53;;;19.77;;
52320;SDS011;38261;54.090;13.382;2023-03-20T04:49:56;35.17;;;17.87;;
52320;SDS011;38261;54.090;13.382;2023-03-20T04:51:18;38.20;;;18.77;;
52320;SDS011;38261;54.090;13.382;2023-03-20T04:52:40;41.00;;;19.00;;
52320;SDS011;38261;54.090;13.382;2023-03-20T04:54:02;38.70;;;17.17;;
52320;SDS011;38261;54.090;13.382;2023-03-20T04:55:24;39.77;;;20.03;;
52320;SDS011;38261;54.090;13.382;2023-03-20T04:56:47;42.53;;;18.70;;
52320;SDS011;38261;54.090;13.382;2023-03-20T04:58:09;40.63;;;18.43;;
52320;SDS011;38261;54.090;13.382;2023-03-20T04:59:31;37.83;;;18.00;;
52320;SDS011;38261;54.090;13.382;2023-03-20T05:00:53;32.03;;;16.40;;
52320;SDS011;38261;54.090;13.382;2023-03-20T05:02:15;41.00;;;17.50;;
52320;SDS011;38261;54.090;13.382;2023-03-20T05:03:38;36.00;;;17.50;;
52320;SDS011;38261;54.090;13.382;2023-03-20T05:05:00;40.70;;;18.43;;
52320;SDS011;38261;54.090;13.382;2023-03-20T05:06:22;36.70;;;17.77;;
52320;SDS011;38261;54.090;13.382;2023-03-20T05:07:44;35.43;;;16.83;;
52320;SDS011;38261;54.090;13.382;2023-03-20T05:09:07;31.87;;;15.17;;
52320;SDS011;38261;54.090;13.382;2023-03-20T05:10:29;34.90;;;17.27;;
52320;SDS011;38261;54.090;13.382;2023-03-20T05:11:51;35.20;;;16.70;;
52320;SDS011;38261;54.090;13.382;2023-03-20T05:13:13;34.27;;;16.67;;
52320;SDS011;38261;54.090;13.382;2023-03-20T05:14:35;41.33;;;16.23;;
52320;SDS011;38261;54.090;13.382;2023-03-20T05:15:57;34.80;;;16.80;;
52320;SDS011;38261;54.090;13.382;2023-03-20T05:17:23;35.60;;;15.40;;
52320;SDS011;38261;54.090;13.382;2023-03-20T05:18:45;39.23;;;17.10;;
52320;SDS011;38261;54.090;13.382;2023-03-20T05:20:08;37.27;;;16.53;;
52320;SDS011;38261;54.090;13.382;2023-03-20T05:21:31;36.97;;;16.73;;
52320;SDS011;38261;54.090;13.382;2023-03-20T05:22:53;47.50;;;17.53;;
52320;SDS011;38261;54.090;13.382;2023-03-20T05:24:15;33.87;;;14.80;;
52320;SDS011;38261;54.090;13.382;2023-03-20T05:25:37;27.53;;;12.03;;
52320;SDS011;38261;54.090;13.382;2023-03-20T05:27:00;29.37;;;12.63;;
52320;SDS011;38261;54.090;13.382;2023-03-20T05:28:22;27.47;;;11.73;;
52320;SDS011;38261;54.090;13.382;2023-03-20T05:29:44;24.00;;;11.50;;
52320;SDS011;38261;54.090;13.382;2023-03-20T05:31:06;24.10;;;10.60;;
52320;SDS011;38261;54.090;13.382;2023-03-20T05:32:28;17.50;;;8.77;;
52320;SDS011;38261;54.090;13.382;2023-03-20T05:33:50;22.17;;;10.10;;
52320;SDS011;38261;54.090;13.382;2023-03-20T05:35:13;23.60;;;10.80;;
52320;SDS011;38261;54.090;13.382;2023-03-20T05:36:35;21.77;;;11.10;;
52320;SDS011;38261;54.090;13.382;2023-03-20T05:37:57;23.70;;;10.60;;
52320;SDS011;38261;54.090;13.382;2023-03-20T05:39:19;22.70;;;10.17;;
52320;SDS011;38261;54.090;13.382;2023-03-20T05:40:42;21.77;;;11.47;;
52320;SDS011;38261;54.090;13.382;2023-03-20T05:42:04;24.13;;;10.73;;
52320;SDS011;38261;54.090;13.382;2023-03-20T05:43:26;27.30;;;11.40;;
52320;SDS011;38261;54.090;13.382;2023-03-20T05:44:52;22.10;;;10.50;;
52320;SDS011;38261;54.090;13.382;2023-03-20T05:46:14;27.57;;;11.80;;
52320;SDS011;38261;54.090;13.382;2023-03-20T05:47:36;21.73;;;10.20;;
52320;SDS011;38261;54.090;13.382;2023-03-20T05:48:58;32.30;;;11.70;;
52320;SDS011;38261;54.090;13.382;2023-03-20T05:50:21;24.67;;;10.23;;
52320;SDS011;38261;54.090;13.382;2023-03-20T05:51:43;24.60;;;9.73;;
52320;SDS011;38261;54.090;13.382;2023-03-20T05:53:05;22.00;;;10.07;;
52320;SDS011;38261;54.090;13.382;2023-03-20T05:54:28;18.70;;;9.23;;
52320;SDS011;38261;54.090;13.382;2023-03-20T05:55:50;22.10;;;9.80;;
52320;SDS011;38261;54.090;13.382;2023-03-20T05:57:12;20.33;;;9.20;;
52320;SDS011;38261;54.090;13.382;2023-03-20T05:58:34;26.43;;;9.07;;
52320;SDS011;38261;54.090;13.382;2023-03-20T05:59:57;23.60;;;10.23;;
52320;SDS011;38261;54.090;13.382;2023-03-20T06:01:19;19.27;;;9.57;;
52320;SDS011;38261;54.090;13.382;2023-03-20T06:02:43;17.50;;;8.63;;
52320;SDS011;38261;54.090;13.382;2023-03-20T06:04:08;20.40;;;9.30;;
52320;SDS011;38261;54.090;13.382;2023-03-20T06:05:30;19.37;;;8.83;;
52320;SDS011;38261;54.090;13.382;2023-03-20T06:06:52;23.20;;;9.67;;
52320;SDS011;38261;54.090;13.382;2023-03-20T06:08:14;18.93;;;9.03;;
52320;SDS011;38261;54.090;13.382;2023-03-20T06:09:36;19.43;;;9.90;;
52320;SDS011;38261;54.090;13.382;2023-03-20T06:10:58;20.90;;;8.73;;
52320;SDS011;38261;54.090;13.382;2023-03-20T06:12:20;19.80;;;9.20;;
52320;SDS011;38261;54.090;13.382;2023-03-20T06:13:43;22.83;;;9.50;;
52320;SDS011;38261;54.090;13.382;2023-03-20T06:15:05;22.87;;;9.60;;
52320;SDS011;38261;54.090;13.382;2023-03-20T06:16:28;21.87;;;9.57;;
52320;SDS011;38261;54.090;13.382;2023-03-20T06:17:50;27.23;;;9.57;;
52320;SDS011;38261;54.090;13.382;2023-03-20T06:19:12;24.37;;;10.00;;
52320;SDS011;38261;54.090;13.382;2023-03-20T06:20:34;25.83;;;10.17;;
52320;SDS011;38261;54.090;13.382;2023-03-20T06:21:56;24.03;;;10.00;;
52320;SDS011;38261;54.090;13.382;2023-03-20T06:23:18;26.30;;;9.80;;
52320;SDS011;38261;54.090;13.382;2023-03-20T06:24:41;19.30;;;9.30;;
52320;SDS011;38261;54.090;13.382;2023-03-20T06:27:13;23.83;;;10.50;;
52320;SDS011;38261;54.090;13.382;2023-03-20T06:28:36;22.97;;;10.63;;
52320;SDS011;38261;54.090;13.382;2023-03-20T06:29:58;19.90;;;9.07;;
52320;SDS011;38261;54.090;13.382;2023-03-20T06:31:20;20.97;;;9.77;;
52320;SDS011;38261;54.090;13.382;2023-03-20T06:32:42;20.50;;;9.43;;
52320;SDS011;38261;54.090;13.382;2023-03-20T06:34:04;22.83;;;11.27;;
52320;SDS011;38261;54.090;13.382;2023-03-20T06:35:26;22.67;;;10.30;;
52320;SDS011;38261;54.090;13.382;2023-03-20T06:36:51;20.67;;;10.30;;
52320;SDS011;38261;54.090;13.382;2023-03-20T06:38:14;24.97;;;10.70;;
52320;SDS011;38261;54.090;13.382;2023-03-20T06:39:36;23.60;;;9.57;;
52320;SDS011;38261;54.090;13.382;2023-03-20T06:40:58;23.30;;;10.17;;
52320;SDS011;38261;54.090;13.382;2023-03-20T06:42:20;29.20;;;11.47;;
52320;SDS011;38261;54.090;13.382;2023-03-20T06:43:42;22.03;;;9.80;;
52320;SDS011;38261;54.090;13.382;2023-03-20T06:45:04;23.13;;;9.87;;
52320;SDS011;38261;54.090;13.382;2023-03-20T06:46:28;20.87;;;8.90;;
52320;SDS011;38261;54.090;13.382;2023-03-20T06:47:50;20.27;;;9.33;;
52320;SDS011;38261;54.090;13.382;2023-03-20T06:49:13;20.00;;;9.27;;
52320;SDS011;38261;54.090;13.382;2023-03-20T06:50:35;25.53;;;10.50;;
52320;SDS011;38261;54.090;13.382;2023-03-20T06:51:57;21.40;;;9.33;;
52320;SDS011;38261;54.090;13.382;2023-03-20T06:53:20;26.70;;;9.97;;
52320;SDS011;38261;54.090;13.382;2023-03-20T06:54:43;23.83;;;9.23;;
52320;SDS011;38261;54.090;13.382;2023-03-20T06:56:06;18.70;;;8.53;;
52320;SDS011;38261;54.090;13.382;2023-03-20T06:57:29;18.40;;;8.60;;
52320;SDS011;38261;54.090;13.382;2023-03-20T06:58:51;19.80;;;9.33;;
52320;SDS011;38261;54.090;13.382;2023-03-20T07:00:13;19.83;;;9.10;;
52320;SDS011;38261;54.090;13.382;2023-03-20T07:01:36;19.87;;;9.07;;
52320;SDS011;38261;54.090;13.382;2023-03-20T07:02:58;19.70;;;9.70;;
52320;SDS011;38261;54.090;13.382;2023-03-20T07:04:22;23.57;;;10.17;;
52320;SDS011;38261;54.090;13.382;2023-03-20T07:05:45;20.33;;;9.67;;
52320;SDS011;38261;54.090;13.382;2023-03-20T07:07:07;24.30;;;10.07;;
52320;SDS011;38261;54.090;13.382;2023-03-20T07:08:29;25.67;;;9.60;;
52320;SDS011;38261;54.090;13.382;2023-03-20T07:09:55;20.77;;;9.90;;
52320;SDS011;38261;54.090;13.382;2023-03-20T07:11:17;23.13;;;10.73;;
52320;SDS011;38261;54.090;13.382;2023-03-20T07:12:39;24.37;;;9.97;;
52320;SDS011;38261;54.090;13.382;2023-03-20T07:14:02;21.47;;;10.77;;
52320;SDS011;38261;54.090;13.382;2023-03-20T07:15:24;25.80;;;11.07;;
52320;SDS011;38261;54.090;13.382;2023-03-20T07:16:47;23.83;;;10.37;;
52320;SDS011;38261;54.090;13.382;2023-03-20T07:18:09;24.07;;;10.20;;
52320;SDS011;38261;54.090;13.382;2023-03-20T07:19:31;20.77;;;9.77;;
52320;SDS011;38261;54.090;13.382;2023-03-20T07:20:54;27.90;;;11.70;;
52320;SDS011;38261;54.090;13.382;2023-03-20T07:22:26;28.10;;;10.57;;
52320;SDS011;38261;54.090;13.382;2023-03-20T07:23:49;28.57;;;11.03;;
52320;SDS011;38261;54.090;13.382;2023-03-20T07:25:11;24.63;;;11.10;;
52320;SDS011;38261;54.090;13.382;2023-03-20T07:26:33;21.27;;;9.47;;
52320;SDS011;38261;54.090;13.382;2023-03-20T07:27:56;23.30;;;11.40;;
52320;SDS011;38261;54.090;13.382;2023-03-20T07:29:18;29.63;;;11.37;;
52320;SDS011;38261;54.090;13.382;2023-03-20T07:30:40;32.77;;;11.07;;
52320;SDS011;38261;54.090;13.382;2023-03-20T07:32:02;24.37;;;10.30;;
52320;SDS011;38261;54.090;13.382;2023-03-20T07:33:25;28.90;;;11.17;;
52320;SDS011;38261;54.090;13.382;2023-03-20T07:34:47;23.27;;;11.20;;
52320;SDS011;38261;54.090;13.382;2023-03-20T07:36:10;25.07;;;10.90;;
52320;SDS011;38261;54.090;13.382;2023-03-20T07:37:32;25.47;;;11.60;;
52320;SDS011;38261;54.090;13.382;2023-03-20T07:38:54;25.13;;;10.60;;
52320;SDS011;38261;54.090;13.382;2023-03-20T07:40:16;27.53;;;11.13;;
52320;SDS011;38261;54.090;13.382;2023-03-20T07:41:39;22.77;;;10.60;;
52320;SDS011;38261;54.090;13.382;2023-03-20T07:43:01;24.77;;;10.87;;
52320;SDS011;38261;54.090;13.382;2023-03-20T07:44:23;23.67;;;10.13;;
52320;SDS011;38261;54.090;13.382;2023-03-20T07:45:45;27.57;;;11.63;;
52320;SDS011;38261;54.090;13.382;2023-03-20T07:47:07;20.97;;;10.97;;
52320;SDS011;38261;54.090;13.382;2023-03-20T07:48:29;21.77;;;10.77;;
52320;SDS011;38261;54.090;13.382;2023-03-20T07:49:52;23.70;;;9.63;;
52320;SDS011;38261;54.090;13.382;2023-03-20T07:51:14;22.93;;;10.87;;
52320;SDS011;38261;54.090;13.382;2023-03-20T07:52:36;25.80;;;11.70;;
52320;SDS011;38261;54.090;13.382;2023-03-20T07:53:58;19.63;;;9.73;;
52320;SDS011;38261;54.090;13.382;2023-03-20T07:55:21;17.80;;;9.23;;
52320;SDS011;38261;54.090;13.382;2023-03-20T07:56:43;23.53;;;10.23;;
52320;SDS011;38261;54.090;13.382;2023-03-20T07:58:05;20.20;;;9.17;;
52320;SDS011;38261;54.090;13.382;2023-03-20T07:59:28;24.07;;;9.60;;
52320;SDS011;38261;54.090;13.382;2023-03-20T08:00:51;23.97;;;10.83;;
52320;SDS011;38261;54.090;13.382;2023-03-20T08:02:16;16.97;;;8.77;;
52320;SDS011;38261;54.090;13.382;2023-03-20T08:03:38;23.77;;;10.10;;
52320;SDS011;38261;54.090;13.382;2023-03-20T08:05:01;21.27;;;8.53;;
52320;SDS011;38261;54.090;13.382;2023-03-20T08:06:23;24.67;;;9.97;;
52320;SDS011;38261;54.090;13.382;2023-03-20T08:07:46;21.00;;;10.30;;
52320;SDS011;38261;54.090;13.382;2023-03-20T08:09:08;23.27;;;10.90;;
52320;SDS011;38261;54.090;13.382;2023-03-20T08:10:30;18.77;;;9.27;;
52320;SDS011;38261;54.090;13.382;2023-03-20T08:11:52;18.90;;;8.80;;
52320;SDS011;38261;54.090;13.382;2023-03-20T08:13:14;16.77;;;9.00;;
52320;SDS011;38261;54.090;13.382;2023-03-20T08:14:36;18.13;;;8.60;;
52320;SDS011;38261;54.090;13.382;2023-03-20T08:16:00;19.30;;;10.40;;
52320;SDS011;38261;54.090;13.382;2023-03-20T08:17:22;15.83;;;8.43;;
52320;SDS011;38261;54.090;13.382;2023-03-20T08:18:44;18.03;;;9.20;;
52320;SDS011;38261;54.090;13.382;2023-03-20T08:20:06;18.97;;;8.93;;
52320;SDS011;38261;54.090;13.382;2023-03-20T08:21:29;17.03;;;8.23;;
52320;SDS011;38261;54.090;13.382;2023-03-20T08:22:52;15.00;;;7.97;;
52320;SDS011;38261;54.090;13.382;2023-03-20T08:24:14;15.77;;;8.30;;
52320;SDS011;38261;54.090;13.382;2023-03-20T08:25:37;17.10;;;8.63;;
52320;SDS011;38261;54.090;13.382;2023-03-20T08:26:59;18.77;;;8.17;;
52320;SDS011;38261;54.090;13.382;2023-03-20T08:28:21;16.47;;;8.53;;
52320;SDS011;38261;54.090;13.382;2023-03-20T08:30:04;17.10;;;8.47;;
52320;SDS011;38261;54.090;13.382;2023-03-20T08:31:27;21.67;;;9.53;;
52320;SDS011;38261;54.090;13.382;2023-03-20T08:32:49;19.20;;;8.33;;
52320;SDS011;38261;54.090;13.382;2023-03-20T08:34:11;22.17;;;8.70;;
52320;SDS011;38261;54.090;13.382;2023-03-20T08:35:33;17.57;;;8.63;;
52320;SDS011;38261;54.090;13.382;2023-03-20T08:36:56;18.30;;;9.03;;
52320;SDS011;38261;54.090;13.382;2023-03-20T08:38:18;17.53;;;8.90;;
52320;SDS011;38261;54.090;13.382;2023-03-20T08:39:40;16.53;;;9.30;;
52320;SDS011;38261;54.090;13.382;2023-03-20T08:41:02;15.93;;;8.23;;
52320;SDS011;38261;54.090;13.382;2023-03-20T08:42:24;14.60;;;8.27;;
52320;SDS011;38261;54.090;13.382;2023-03-20T08:43:46;18.20;;;9.10;;
52320;SDS011;38261;54.090;13.382;2023-03-20T08:45:08;14.33;;;8.30;;
52320;SDS011;38261;54.090;13.382;2023-03-20T08:46:32;18.93;;;8.80;;
52320;SDS011;38261;54.090;13.382;2023-03-20T08:47:55;21.83;;;9.90;;
52320;SDS011;38261;54.090;13.382;2023-03-20T08:49:17;18.37;;;8.30;;
52320;SDS011;38261;54.090;13.382;2023-03-20T08:50:39;19.50;;;10.67;;